createdAt,value
2018-02-21T00:00:53.034Z,1017.45
2018-02-21T00:01:53.023Z,1017.47
2018-02-21T00:02:53.034Z,1017.52
2018-02-21T00:03:53.054Z,1017.55
2018-02-21T00:04:53.038Z,1017.56
2018-02-21T00:05:53.067Z,1017.59
2018-02-21T00:06:53.056Z,1017.61
2018-02-21T00:07:53.061Z,1017.56
2018-02-21T00:08:53.068Z,1017.54
2018-02-21T00:09:53.083Z,1017.49
2018-02-21T00:10:53.076Z,1017.45
2018-02-21T00:11:53.081Z,1017.41
2018-02-21T00:12:53.068Z,1017.34
2018-02-21T00:13:53.140Z,1017.33
2018-02-21T00:14:53.078Z,1017.29
2018-02-21T00:15:53.126Z,1017.29
2018-02-21T00:16:53.203Z,1017.30
2018-02-21T00:17:53.109Z,1017.31
2018-02-21T00:18:53.212Z,1017.36
2018-02-21T00:19:53.092Z,1017.37
2018-02-21T00:20:53.118Z,1017.42
2018-02-21T00:21:53.112Z,1017.48
2018-02-21T00:22:53.158Z,1017.45
2018-02-21T00:23:53.120Z,1017.50
2018-02-21T00:24:53.115Z,1017.57
2018-02-21T00:25:53.119Z,1017.54
2018-02-21T00:26:53.154Z,1017.52
2018-02-21T00:27:53.131Z,1017.51
2018-02-21T00:28:53.141Z,1017.45
2018-02-21T00:29:53.214Z,1017.45
2018-02-21T00:30:53.147Z,1017.41
2018-02-21T00:31:53.220Z,1017.39
2018-02-21T00:32:53.157Z,1017.37
2018-02-21T00:33:53.152Z,1017.34
2018-02-21T00:34:53.168Z,1017.33
2018-02-21T00:35:53.171Z,1017.32
2018-02-21T00:36:53.186Z,1017.31
2018-02-21T00:37:53.180Z,1017.32
2018-02-21T00:38:53.227Z,1017.31
2018-02-21T00:39:53.211Z,1017.33
2018-02-21T00:40:53.179Z,1017.30
2018-02-21T00:41:53.189Z,1017.31
2018-02-21T00:42:53.198Z,1017.35
2018-02-21T00:43:53.201Z,1017.40
2018-02-21T00:44:53.194Z,1017.41
2018-02-21T00:45:53.220Z,1017.43
2018-02-21T00:46:53.215Z,1017.46
2018-02-21T00:47:53.211Z,1017.46
2018-02-21T00:48:53.244Z,1017.53
2018-02-21T00:49:53.265Z,1017.53
2018-02-21T00:50:53.241Z,1017.52
2018-02-21T00:51:53.253Z,1017.56
2018-02-21T00:52:53.244Z,1017.54
2018-02-21T00:53:53.276Z,1017.55
2018-02-21T00:54:53.252Z,1017.51
2018-02-21T00:55:53.233Z,1017.54
2018-02-21T00:56:53.244Z,1017.48
2018-02-21T00:57:53.247Z,1017.47
2018-02-21T00:58:53.245Z,1017.47
2018-02-21T00:59:53.249Z,1017.46
2018-02-21T01:00:53.254Z,1017.42
2018-02-21T01:01:53.262Z,1017.42
2018-02-21T01:02:53.285Z,1017.40
2018-02-21T01:03:53.298Z,1017.43
2018-02-21T01:04:53.283Z,1017.44
2018-02-21T01:05:53.279Z,1017.48
2018-02-21T01:06:53.287Z,1017.46
2018-02-21T01:07:53.284Z,1017.48
2018-02-21T01:08:53.301Z,1017.48
2018-02-21T01:09:53.287Z,1017.50
2018-02-21T01:10:53.298Z,1017.52
2018-02-21T01:11:53.310Z,1017.55
2018-02-21T01:12:53.358Z,1017.52
2018-02-21T01:13:53.322Z,1017.49
2018-02-21T01:14:53.320Z,1017.46
2018-02-21T01:15:53.338Z,1017.48
2018-02-21T01:16:53.334Z,1017.44
2018-02-21T01:17:53.326Z,1017.43
2018-02-21T01:18:53.334Z,1017.41
2018-02-21T01:19:53.348Z,1017.40
2018-02-21T01:20:53.359Z,1017.39
2018-02-21T01:21:53.336Z,1017.34
2018-02-21T01:22:53.329Z,1017.35
2018-02-21T01:23:53.339Z,1017.29
2018-02-21T01:24:53.383Z,1017.33
2018-02-21T01:25:53.347Z,1017.28
2018-02-21T01:26:53.353Z,1017.30
2018-02-21T01:27:53.350Z,1017.23
2018-02-21T01:28:53.414Z,1017.29
2018-02-21T01:29:53.390Z,1017.28
2018-02-21T01:30:53.369Z,1017.29
2018-02-21T01:31:53.385Z,1017.33
2018-02-21T01:32:53.392Z,1017.32
2018-02-21T01:33:53.394Z,1017.27
2018-02-21T01:34:53.380Z,1017.30
2018-02-21T01:35:53.491Z,1017.29
2018-02-21T01:36:53.402Z,1017.30
2018-02-21T01:37:53.390Z,1017.25
2018-02-21T01:38:53.428Z,1017.27
2018-02-21T01:39:53.413Z,1017.24
2018-02-21T01:40:53.416Z,1017.20
2018-02-21T01:41:53.414Z,1017.20
2018-02-21T01:42:53.438Z,1017.19
2018-02-21T01:43:53.440Z,1017.18
2018-02-21T01:44:53.435Z,1017.16
2018-02-21T01:45:53.432Z,1017.21
2018-02-21T01:46:53.443Z,1017.25
2018-02-21T01:47:53.468Z,1017.28
2018-02-21T01:48:53.464Z,1017.34
2018-02-21T01:49:53.458Z,1017.38
2018-02-21T01:50:53.454Z,1017.44
2018-02-21T01:51:53.451Z,1017.47
2018-02-21T01:52:53.456Z,1017.51
2018-02-21T01:53:53.468Z,1017.50
2018-02-21T01:54:53.499Z,1017.51
2018-02-21T01:55:53.486Z,1017.48
2018-02-21T01:56:53.470Z,1017.47
2018-02-21T01:57:53.491Z,1017.44
2018-02-21T01:58:53.491Z,1017.36
2018-02-21T01:59:53.480Z,1017.39
2018-02-21T02:00:53.478Z,1017.40
2018-02-21T02:01:53.481Z,1017.35
2018-02-21T02:02:53.513Z,1017.31
2018-02-21T02:03:53.483Z,1017.34
2018-02-21T02:04:53.499Z,1017.36
2018-02-21T02:05:53.496Z,1017.32
2018-02-21T02:06:53.532Z,1017.38
2018-02-21T02:07:53.526Z,1017.40
2018-02-21T02:08:53.504Z,1017.34
2018-02-21T02:09:53.518Z,1017.37
2018-02-21T02:10:53.515Z,1017.38
2018-02-21T02:11:53.529Z,1017.38
2018-02-21T02:12:53.532Z,1017.39
2018-02-21T02:13:53.532Z,1017.36
2018-02-21T02:14:53.539Z,1017.39
2018-02-21T02:15:53.555Z,1017.39
2018-02-21T02:16:53.639Z,1017.42
2018-02-21T02:17:53.583Z,1017.42
2018-02-21T02:18:53.542Z,1017.41
2018-02-21T02:19:53.566Z,1017.36
2018-02-21T02:20:53.554Z,1017.46
2018-02-21T02:21:53.588Z,1017.48
2018-02-21T02:22:53.590Z,1017.47
2018-02-21T02:23:53.576Z,1017.46
2018-02-21T02:24:53.604Z,1017.53
2018-02-21T02:25:53.584Z,1017.56
2018-02-21T02:26:53.588Z,1017.57
2018-02-21T02:27:53.573Z,1017.60
2018-02-21T02:28:53.603Z,1017.62
2018-02-21T02:29:53.644Z,1017.61
2018-02-21T02:30:53.595Z,1017.64
2018-02-21T02:31:53.628Z,1017.68
2018-02-21T02:32:53.601Z,1017.65
2018-02-21T02:33:53.615Z,1017.62
2018-02-21T02:34:53.618Z,1017.65
2018-02-21T02:35:53.602Z,1017.65
2018-02-21T02:36:53.608Z,1017.66
2018-02-21T02:37:53.612Z,1017.63
2018-02-21T02:38:53.618Z,1017.70
2018-02-21T02:39:53.622Z,1017.74
2018-02-21T02:40:53.654Z,1017.75
2018-02-21T02:41:53.642Z,1017.79
2018-02-21T02:42:53.676Z,1017.83
2018-02-21T02:43:53.649Z,1017.88
2018-02-21T02:44:53.653Z,1017.92
2018-02-21T02:45:53.650Z,1017.98
2018-02-21T02:46:53.657Z,1018.02
2018-02-21T02:47:53.657Z,1018.07
2018-02-21T02:48:53.687Z,1018.13
2018-02-21T02:49:53.658Z,1018.14
2018-02-21T02:50:53.678Z,1018.13
2018-02-21T02:51:53.673Z,1018.08
2018-02-21T02:52:53.661Z,1018.07
2018-02-21T02:53:53.722Z,1018.07
2018-02-21T02:54:53.690Z,1018.04
2018-02-21T02:55:53.695Z,1018.03
2018-02-21T02:56:53.722Z,1018.02
2018-02-21T02:57:53.783Z,1017.98
2018-02-21T02:58:53.690Z,1017.98
2018-02-21T02:59:53.703Z,1017.94
2018-02-21T03:00:53.705Z,1017.99
2018-02-21T03:01:53.729Z,1017.98
2018-02-21T03:02:53.718Z,1017.99
2018-02-21T03:03:53.722Z,1018.05
2018-02-21T03:04:53.715Z,1018.08
2018-02-21T03:05:53.716Z,1018.09
2018-02-21T03:06:53.758Z,1018.10
2018-02-21T03:07:53.746Z,1018.10
2018-02-21T03:08:53.721Z,1018.13
2018-02-21T03:09:53.740Z,1018.13
2018-02-21T03:10:53.738Z,1018.13
2018-02-21T03:11:53.729Z,1018.08
2018-02-21T03:12:53.745Z,1018.11
2018-02-21T03:13:53.745Z,1018.10
2018-02-21T03:14:53.744Z,1018.14
2018-02-21T03:15:53.770Z,1018.09
2018-02-21T03:16:53.763Z,1018.11
2018-02-21T03:17:53.756Z,1018.11
2018-02-21T03:18:53.794Z,1018.10
2018-02-21T03:19:53.768Z,1018.11
2018-02-21T03:20:54.626Z,1018.15
2018-02-21T03:21:53.767Z,1018.17
2018-02-21T03:22:53.780Z,1018.17
2018-02-21T03:23:53.777Z,1018.16
2018-02-21T03:24:53.790Z,1018.17
2018-02-21T03:25:53.772Z,1018.20
2018-02-21T03:26:53.784Z,1018.16
2018-02-21T03:27:53.793Z,1018.18
2018-02-21T03:28:53.787Z,1018.15
2018-02-21T03:29:53.801Z,1018.12
2018-02-21T03:30:53.881Z,1018.09
2018-02-21T03:31:53.864Z,1018.06
2018-02-21T03:32:53.908Z,1018.04
2018-02-21T03:33:53.812Z,1018.06
2018-02-21T03:34:53.814Z,1018.00
2018-02-21T03:35:53.823Z,1018.01
2018-02-21T03:36:53.813Z,1018.04
2018-02-21T03:37:53.826Z,1018.06
2018-02-21T03:38:53.829Z,1018.04
2018-02-21T03:39:53.842Z,1018.07
2018-02-21T03:40:53.825Z,1018.09
2018-02-21T03:41:53.904Z,1018.09
2018-02-21T03:42:53.840Z,1018.12
2018-02-21T03:43:53.854Z,1018.10
2018-02-21T03:44:53.842Z,1018.10
2018-02-21T03:45:53.860Z,1018.09
2018-02-21T03:46:53.887Z,1018.09
2018-02-21T03:47:53.847Z,1018.10
2018-02-21T03:48:53.852Z,1018.10
2018-02-21T03:49:53.866Z,1018.10
2018-02-21T03:50:53.892Z,1018.13
2018-02-21T03:51:54.008Z,1018.11
2018-02-21T03:52:53.883Z,1018.14
2018-02-21T03:53:53.882Z,1018.16
2018-02-21T03:54:53.900Z,1018.16
2018-02-21T03:55:53.903Z,1018.18
2018-02-21T03:56:53.884Z,1018.24
2018-02-21T03:57:53.882Z,1018.23
2018-02-21T03:58:53.888Z,1018.25
2018-02-21T03:59:53.884Z,1018.26
2018-02-21T04:00:53.911Z,1018.27
2018-02-21T04:01:53.905Z,1018.21
2018-02-21T04:02:53.933Z,1018.16
2018-02-21T04:03:53.916Z,1018.22
2018-02-21T04:04:53.967Z,1018.18
2018-02-21T04:05:53.914Z,1018.21
2018-02-21T04:06:53.914Z,1018.21
2018-02-21T04:07:53.962Z,1018.26
2018-02-21T04:08:53.936Z,1018.25
2018-02-21T04:09:53.945Z,1018.26
2018-02-21T04:10:53.954Z,1018.25
2018-02-21T04:11:53.920Z,1018.25
2018-02-21T04:12:53.929Z,1018.22
2018-02-21T04:13:53.946Z,1018.20
2018-02-21T04:14:54.625Z,1018.17
2018-02-21T04:15:53.956Z,1018.18
2018-02-21T04:16:53.966Z,1018.17
2018-02-21T04:17:53.987Z,1018.17
2018-02-21T04:18:53.977Z,1018.19
2018-02-21T04:19:53.984Z,1018.22
2018-02-21T04:20:53.968Z,1018.18
2018-02-21T04:21:53.984Z,1018.18
2018-02-21T04:22:53.982Z,1018.18
2018-02-21T04:23:53.997Z,1018.20
2018-02-21T04:24:53.976Z,1018.18
2018-02-21T04:25:53.973Z,1018.23
2018-02-21T04:26:53.972Z,1018.21
2018-02-21T04:27:53.986Z,1018.23
2018-02-21T04:28:53.993Z,1018.21
2018-02-21T04:29:53.993Z,1018.23
2018-02-21T04:30:54.043Z,1018.23
2018-02-21T04:31:53.998Z,1018.17
2018-02-21T04:32:54.086Z,1018.19
2018-02-21T04:33:54.029Z,1018.18
2018-02-21T04:34:54.018Z,1018.21
2018-02-21T04:35:54.504Z,1018.15
2018-02-21T04:36:54.396Z,1018.20
2018-02-21T04:37:54.012Z,1018.20
2018-02-21T04:38:54.016Z,1018.14
2018-02-21T04:39:54.038Z,1018.16
2018-02-21T04:40:54.044Z,1018.14
2018-02-21T04:41:54.035Z,1018.12
2018-02-21T04:42:54.035Z,1018.11
2018-02-21T04:43:54.037Z,1018.13
2018-02-21T04:44:54.061Z,1018.13
2018-02-21T04:45:54.134Z,1018.06
2018-02-21T04:46:54.052Z,1018.08
2018-02-21T04:47:54.042Z,1018.08
2018-02-21T04:48:54.083Z,1018.06
2018-02-21T04:49:54.045Z,1018.04
2018-02-21T04:50:54.049Z,1018.04
2018-02-21T04:51:54.071Z,1018.00
2018-02-21T04:52:54.078Z,1018.00
2018-02-21T04:53:54.069Z,1017.96
2018-02-21T04:54:54.223Z,1018.01
2018-02-21T04:55:54.096Z,1018.05
2018-02-21T04:56:54.102Z,1018.07
2018-02-21T04:57:54.085Z,1018.09
2018-02-21T04:58:54.077Z,1018.09
2018-02-21T04:59:54.079Z,1018.11
2018-02-21T05:00:54.093Z,1018.10
2018-02-21T05:01:54.104Z,1018.08
2018-02-21T05:02:54.111Z,1018.07
2018-02-21T05:03:54.105Z,1018.04
2018-02-21T05:04:54.118Z,1018.02
2018-02-21T05:05:54.108Z,1018.04
2018-02-21T05:06:54.109Z,1018.02
2018-02-21T05:07:54.119Z,1018.04
2018-02-21T05:08:54.135Z,1018.02
2018-02-21T05:09:54.114Z,1018.01
2018-02-21T05:10:54.173Z,1017.99
2018-02-21T05:11:54.239Z,1018.01
2018-02-21T05:12:54.151Z,1017.96
2018-02-21T05:13:54.186Z,1018.03
2018-02-21T05:14:54.162Z,1018.02
2018-02-21T05:15:54.141Z,1018.04
2018-02-21T05:16:54.144Z,1018.04
2018-02-21T05:17:54.158Z,1018.06
2018-02-21T05:18:54.163Z,1018.07
2018-02-21T05:19:54.182Z,1018.09
2018-02-21T05:20:54.147Z,1018.12
2018-02-21T05:21:54.165Z,1018.08
2018-02-21T05:22:54.170Z,1018.07
2018-02-21T05:23:54.160Z,1018.10
2018-02-21T05:24:54.167Z,1018.07
2018-02-21T05:25:54.185Z,1018.06
2018-02-21T05:26:55.124Z,1018.06
2018-02-21T05:27:54.197Z,1018.04
2018-02-21T05:28:54.174Z,1018.04
2018-02-21T05:29:54.190Z,1018.03
2018-02-21T05:30:54.216Z,1018.04
2018-02-21T05:31:54.200Z,1018.04
2018-02-21T05:32:54.210Z,1018.07
2018-02-21T05:33:54.187Z,1018.07
2018-02-21T05:34:54.197Z,1018.07
2018-02-21T05:35:54.198Z,1018.10
2018-02-21T05:36:54.201Z,1018.10
2018-02-21T05:37:54.213Z,1018.10
2018-02-21T05:38:54.219Z,1018.12
2018-02-21T05:39:54.233Z,1018.13
2018-02-21T05:40:54.207Z,1018.15
2018-02-21T05:41:54.246Z,1018.23
2018-02-21T05:42:54.229Z,1018.23
2018-02-21T05:43:54.229Z,1018.27
2018-02-21T05:44:54.240Z,1018.25
2018-02-21T05:45:54.246Z,1018.31
2018-02-21T05:46:54.233Z,1018.40
2018-02-21T05:47:54.249Z,1018.35
2018-02-21T05:48:54.277Z,1018.40
2018-02-21T05:49:54.239Z,1018.41
2018-02-21T05:50:54.261Z,1018.44
2018-02-21T05:51:54.254Z,1018.42
2018-02-21T05:52:55.128Z,1018.45
2018-02-21T05:53:54.302Z,1018.46
2018-02-21T05:54:54.323Z,1018.46
2018-02-21T05:55:54.266Z,1018.49
2018-02-21T05:56:54.267Z,1018.53
2018-02-21T05:57:54.306Z,1018.55
2018-02-21T05:58:54.290Z,1018.50
2018-02-21T05:59:54.279Z,1018.50
2018-02-21T06:00:54.269Z,1018.45
2018-02-21T06:01:54.274Z,1018.47
2018-02-21T06:02:54.279Z,1018.50
2018-02-21T06:03:54.326Z,1018.48
2018-02-21T06:04:54.349Z,1018.45
2018-02-21T06:05:54.323Z,1018.51
2018-02-21T06:06:54.313Z,1018.53
2018-02-21T06:07:54.297Z,1018.57
2018-02-21T06:08:54.318Z,1018.66
2018-02-21T06:09:54.390Z,1018.71
2018-02-21T06:10:54.344Z,1018.75
2018-02-21T06:11:54.332Z,1018.77
2018-02-21T06:12:54.346Z,1018.75
2018-02-21T06:13:54.318Z,1018.75
2018-02-21T06:14:54.353Z,1018.75
2018-02-21T06:15:54.332Z,1018.77
2018-02-21T06:16:54.325Z,1018.75
2018-02-21T06:17:54.318Z,1018.77
2018-02-21T06:18:54.329Z,1018.78
2018-02-21T06:19:54.342Z,1018.78
2018-02-21T06:20:54.344Z,1018.81
2018-02-21T06:21:54.348Z,1018.84
2018-02-21T06:22:54.359Z,1018.84
2018-02-21T06:23:54.372Z,1018.89
2018-02-21T06:24:54.383Z,1018.89
2018-02-21T06:25:54.374Z,1018.92
2018-02-21T06:26:54.347Z,1018.93
2018-02-21T06:27:54.371Z,1018.94
2018-02-21T06:28:54.395Z,1018.96
2018-02-21T06:29:54.358Z,1018.93
2018-02-21T06:30:54.377Z,1018.95
2018-02-21T06:31:54.411Z,1019.00
2018-02-21T06:32:54.403Z,1019.00
2018-02-21T06:33:54.501Z,1018.99
2018-02-21T06:34:54.411Z,1018.99
2018-02-21T06:35:54.414Z,1018.97
2018-02-21T06:36:54.377Z,1018.98
2018-02-21T06:37:54.384Z,1018.97
2018-02-21T06:38:54.402Z,1018.91
2018-02-21T06:39:54.468Z,1018.92
2018-02-21T06:40:54.396Z,1018.88
2018-02-21T06:41:54.394Z,1018.87
2018-02-21T06:42:54.412Z,1018.87
2018-02-21T06:43:54.425Z,1018.81
2018-02-21T06:44:54.409Z,1018.79
2018-02-21T06:45:54.421Z,1018.80
2018-02-21T06:46:55.123Z,1018.78
2018-02-21T06:47:54.408Z,1018.80
2018-02-21T06:48:54.445Z,1018.78
2018-02-21T06:49:54.425Z,1018.74
2018-02-21T06:50:54.422Z,1018.74
2018-02-21T06:51:54.460Z,1018.68
2018-02-21T06:52:54.451Z,1018.67
2018-02-21T06:53:54.437Z,1018.67
2018-02-21T06:54:54.478Z,1018.65
2018-02-21T06:55:54.456Z,1018.67
2018-02-21T06:56:54.454Z,1018.62
2018-02-21T06:57:54.451Z,1018.63
2018-02-21T06:58:54.462Z,1018.59
2018-02-21T06:59:54.459Z,1018.64
2018-02-21T07:00:54.471Z,1018.64
2018-02-21T07:01:54.462Z,1018.67
2018-02-21T07:02:54.453Z,1018.70
2018-02-21T07:03:54.457Z,1018.70
2018-02-21T07:04:54.537Z,1018.70
2018-02-21T07:05:54.499Z,1018.75
2018-02-21T07:06:54.486Z,1018.75
2018-02-21T07:07:54.517Z,1018.75
2018-02-21T07:08:54.465Z,1018.74
2018-02-21T07:09:54.488Z,1018.70
2018-02-21T07:10:54.499Z,1018.72
2018-02-21T07:11:54.485Z,1018.66
2018-02-21T07:12:54.494Z,1018.72
2018-02-21T07:13:54.500Z,1018.71
2018-02-21T07:14:54.520Z,1018.73
2018-02-21T07:15:54.497Z,1018.75
2018-02-21T07:16:54.496Z,1018.75
2018-02-21T07:17:54.558Z,1018.75
2018-02-21T07:18:54.521Z,1018.73
2018-02-21T07:19:54.513Z,1018.72
2018-02-21T07:20:54.547Z,1018.70
2018-02-21T07:21:54.570Z,1018.68
2018-02-21T07:22:54.515Z,1018.69
2018-02-21T07:23:54.562Z,1018.66
2018-02-21T07:24:54.559Z,1018.66
2018-02-21T07:25:54.524Z,1018.66
2018-02-21T07:26:54.539Z,1018.66
2018-02-21T07:27:54.543Z,1018.69
2018-02-21T07:28:54.533Z,1018.68
2018-02-21T07:29:54.544Z,1018.67
2018-02-21T07:30:54.564Z,1018.64
2018-02-21T07:31:54.560Z,1018.68
2018-02-21T07:32:54.544Z,1018.65
2018-02-21T07:33:54.548Z,1018.62
2018-02-21T07:34:54.593Z,1018.67
2018-02-21T07:35:54.592Z,1018.69
2018-02-21T07:36:54.587Z,1018.68
2018-02-21T07:37:54.583Z,1018.66
2018-02-21T07:38:54.656Z,1018.68
2018-02-21T07:39:54.597Z,1018.71
2018-02-21T07:40:54.618Z,1018.69
2018-02-21T07:41:54.581Z,1018.69
2018-02-21T07:42:54.584Z,1018.65
2018-02-21T07:43:54.608Z,1018.71
2018-02-21T07:44:54.601Z,1018.65
2018-02-21T07:45:54.594Z,1018.65
2018-02-21T07:46:54.595Z,1018.57
2018-02-21T07:47:54.593Z,1018.66
2018-02-21T07:48:54.612Z,1018.63
2018-02-21T07:49:54.614Z,1018.65
2018-02-21T07:50:54.625Z,1018.58
2018-02-21T07:51:54.617Z,1018.63
2018-02-21T07:52:54.611Z,1018.61
2018-02-21T07:53:54.615Z,1018.60
2018-02-21T07:54:54.620Z,1018.64
2018-02-21T07:55:54.703Z,1018.58
2018-02-21T07:56:54.636Z,1018.62
2018-02-21T07:57:54.663Z,1018.63
2018-02-21T07:58:54.644Z,1018.64
2018-02-21T07:59:54.670Z,1018.62
2018-02-21T08:00:54.703Z,1018.62
2018-02-21T08:01:54.669Z,1018.67
2018-02-21T08:02:54.668Z,1018.66
2018-02-21T08:03:54.695Z,1018.73
2018-02-21T08:04:54.662Z,1018.75
2018-02-21T08:05:54.668Z,1018.76
2018-02-21T08:06:54.679Z,1018.82
2018-02-21T08:07:54.683Z,1018.88
2018-02-21T08:08:54.828Z,1018.88
2018-02-21T08:09:54.695Z,1018.89
2018-02-21T08:10:54.710Z,1018.90
2018-02-21T08:11:54.708Z,1018.90
2018-02-21T08:12:54.711Z,1018.94
2018-02-21T08:13:54.726Z,1018.96
2018-02-21T08:14:54.724Z,1018.98
2018-02-21T08:15:54.733Z,1019.03
2018-02-21T08:16:54.727Z,1019.05
2018-02-21T08:17:54.775Z,1019.08
2018-02-21T08:18:54.747Z,1019.11
2018-02-21T08:19:54.776Z,1019.13
2018-02-21T08:20:54.788Z,1019.13
2018-02-21T08:21:54.772Z,1019.12
2018-02-21T08:22:54.794Z,1019.17
2018-02-21T08:23:54.790Z,1019.16
2018-02-21T08:24:54.802Z,1019.17
2018-02-21T08:25:54.803Z,1019.24
2018-02-21T08:26:54.806Z,1019.23
2018-02-21T08:27:54.815Z,1019.24
2018-02-21T08:28:54.840Z,1019.26
2018-02-21T08:29:54.840Z,1019.29
2018-02-21T08:30:54.845Z,1019.30
2018-02-21T08:31:54.938Z,1019.25
2018-02-21T08:32:54.890Z,1019.30
2018-02-21T08:33:54.898Z,1019.31
2018-02-21T08:34:54.891Z,1019.32
2018-02-21T08:35:54.920Z,1019.32
2018-02-21T08:36:54.932Z,1019.31
2018-02-21T08:37:54.944Z,1019.27
2018-02-21T08:38:54.944Z,1019.28
2018-02-21T08:39:54.952Z,1019.26
2018-02-21T08:40:54.956Z,1019.28
2018-02-21T08:41:54.981Z,1019.21
2018-02-21T08:42:54.986Z,1019.20
2018-02-21T08:43:55.004Z,1019.17
2018-02-21T08:44:55.006Z,1019.17
2018-02-21T08:45:55.004Z,1019.17
2018-02-21T08:46:55.048Z,1019.21
2018-02-21T08:47:55.046Z,1019.19
2018-02-21T08:48:55.058Z,1019.20
2018-02-21T08:49:55.097Z,1019.22
2018-02-21T08:50:55.077Z,1019.19
2018-02-21T08:51:55.094Z,1019.23
2018-02-21T08:52:55.103Z,1019.18
2018-02-21T08:53:55.128Z,1019.25
2018-02-21T08:54:55.167Z,1019.22
2018-02-21T08:55:55.168Z,1019.20
2018-02-21T08:56:55.274Z,1019.22
2018-02-21T08:57:55.176Z,1019.18
2018-02-21T08:58:55.192Z,1019.19
2018-02-21T08:59:55.202Z,1019.21
2018-02-21T09:00:55.196Z,1019.15
2018-02-21T09:01:55.224Z,1019.21
2018-02-21T09:02:55.239Z,1019.17
2018-02-21T09:03:55.234Z,1019.19
2018-02-21T09:04:55.247Z,1019.21
2018-02-21T09:05:55.298Z,1019.21
2018-02-21T09:06:55.277Z,1019.22
2018-02-21T09:07:55.316Z,1019.17
2018-02-21T09:08:55.460Z,1019.17
2018-02-21T09:09:55.318Z,1019.23
2018-02-21T09:10:55.330Z,1019.21
2018-02-21T09:11:55.358Z,1019.21
2018-02-21T09:12:55.353Z,1019.19
2018-02-21T09:13:55.362Z,1019.21
2018-02-21T09:14:55.410Z,1019.21
2018-02-21T09:15:55.387Z,1019.23
2018-02-21T09:16:56.137Z,1019.23
2018-02-21T09:17:55.445Z,1019.28
2018-02-21T09:18:55.434Z,1019.28
2018-02-21T09:19:55.458Z,1019.29
2018-02-21T09:20:55.469Z,1019.34
2018-02-21T09:21:55.522Z,1019.36
2018-02-21T09:22:55.547Z,1019.39
2018-02-21T09:23:55.507Z,1019.36
2018-02-21T09:24:55.549Z,1019.41
2018-02-21T09:25:55.554Z,1019.38
2018-02-21T09:26:55.606Z,1019.39
2018-02-21T09:27:55.587Z,1019.40
2018-02-21T09:28:55.575Z,1019.42
2018-02-21T09:29:55.605Z,1019.44
2018-02-21T09:30:55.612Z,1019.45
2018-02-21T09:31:55.739Z,1019.40
2018-02-21T09:32:55.650Z,1019.43
2018-02-21T09:33:55.659Z,1019.42
2018-02-21T09:34:55.676Z,1019.41
2018-02-21T09:35:55.708Z,1019.50
2018-02-21T09:36:55.699Z,1019.42
2018-02-21T09:37:55.716Z,1019.41
2018-02-21T09:38:55.785Z,1019.47
2018-02-21T09:39:55.769Z,1019.43
2018-02-21T09:40:55.769Z,1019.46
2018-02-21T09:41:56.648Z,1019.46
2018-02-21T09:42:55.845Z,1019.48
2018-02-21T09:43:55.822Z,1019.43
2018-02-21T09:44:55.871Z,1019.44
2018-02-21T09:45:55.839Z,1019.42
2018-02-21T09:46:55.855Z,1019.45
2018-02-21T09:47:55.881Z,1019.47
2018-02-21T09:48:55.886Z,1019.54
2018-02-21T09:49:55.956Z,1019.55
2018-02-21T09:50:55.957Z,1019.59
2018-02-21T09:51:55.964Z,1019.64
2018-02-21T09:52:55.978Z,1019.63
2018-02-21T09:53:56.005Z,1019.63
2018-02-21T09:54:56.015Z,1019.66
2018-02-21T09:55:56.022Z,1019.69
2018-02-21T09:56:56.023Z,1019.63
2018-02-21T09:57:56.041Z,1019.66
2018-02-21T09:58:56.040Z,1019.63
2018-02-21T09:59:56.125Z,1019.64
2018-02-21T10:00:56.125Z,1019.59
2018-02-21T10:01:56.148Z,1019.59
2018-02-21T10:02:56.127Z,1019.59
2018-02-21T10:03:56.145Z,1019.58
2018-02-21T10:04:56.161Z,1019.57
2018-02-21T10:05:56.185Z,1019.57
2018-02-21T10:06:56.198Z,1019.59
2018-02-21T10:07:56.203Z,1019.52
2018-02-21T10:08:56.214Z,1019.54
2018-02-21T10:09:56.250Z,1019.46
2018-02-21T10:10:56.260Z,1019.51
2018-02-21T10:11:56.265Z,1019.53
2018-02-21T10:12:56.304Z,1019.58
2018-02-21T10:13:56.302Z,1019.57
2018-02-21T10:14:56.310Z,1019.56
2018-02-21T10:15:56.350Z,1019.59
2018-02-21T10:16:56.350Z,1019.58
2018-02-21T10:17:56.387Z,1019.61
2018-02-21T10:18:56.398Z,1019.63
2018-02-21T10:19:56.430Z,1019.64
2018-02-21T10:20:56.413Z,1019.62
2018-02-21T10:21:56.458Z,1019.62
2018-02-21T10:22:56.492Z,1019.66
2018-02-21T10:23:56.472Z,1019.66
2018-02-21T10:24:56.484Z,1019.70
2018-02-21T10:25:56.508Z,1019.66
2018-02-21T10:26:56.526Z,1019.70
2018-02-21T10:27:56.564Z,1019.69
2018-02-21T10:28:56.570Z,1019.67
2018-02-21T10:29:56.577Z,1019.69
2018-02-21T10:30:56.607Z,1019.67
2018-02-21T10:31:56.595Z,1019.68
2018-02-21T10:32:56.630Z,1019.67
2018-02-21T10:33:56.687Z,1019.64
2018-02-21T10:34:56.685Z,1019.65
2018-02-21T10:35:56.668Z,1019.62
2018-02-21T10:36:56.702Z,1019.63
2018-02-21T10:37:56.724Z,1019.64
2018-02-21T10:38:56.718Z,1019.61
2018-02-21T10:39:56.733Z,1019.64
2018-02-21T10:40:56.803Z,1019.62
2018-02-21T10:41:56.786Z,1019.56
2018-02-21T10:42:56.829Z,1019.59
2018-02-21T10:43:56.878Z,1019.62
2018-02-21T10:44:56.843Z,1019.65
2018-02-21T10:45:56.862Z,1019.64
2018-02-21T10:46:56.860Z,1019.63
2018-02-21T10:47:56.885Z,1019.62
2018-02-21T10:48:56.940Z,1019.64
2018-02-21T10:49:56.940Z,1019.58
2018-02-21T10:50:56.977Z,1019.59
2018-02-21T10:51:56.944Z,1019.53
2018-02-21T10:52:56.975Z,1019.54
2018-02-21T10:53:57.013Z,1019.57
2018-02-21T10:54:57.011Z,1019.52
2018-02-21T10:55:57.030Z,1019.48
2018-02-21T10:56:57.044Z,1019.49
2018-02-21T10:57:57.055Z,1019.49
2018-02-21T10:58:57.094Z,1019.48
2018-02-21T10:59:57.106Z,1019.42
2018-02-21T11:00:57.105Z,1019.41
2018-02-21T11:01:57.178Z,1019.37
2018-02-21T11:02:57.174Z,1019.36
2018-02-21T11:03:57.193Z,1019.37
2018-02-21T11:04:57.271Z,1019.39
2018-02-21T11:05:57.198Z,1019.37
2018-02-21T11:06:57.218Z,1019.36
2018-02-21T11:07:57.249Z,1019.36
2018-02-21T11:08:57.282Z,1019.40
2018-02-21T11:09:57.287Z,1019.43
2018-02-21T11:10:57.289Z,1019.35
2018-02-21T11:11:57.309Z,1019.35
2018-02-21T11:12:57.389Z,1019.39
2018-02-21T11:13:57.375Z,1019.40
2018-02-21T11:14:57.377Z,1019.39
2018-02-21T11:15:57.374Z,1019.37
2018-02-21T11:16:57.394Z,1019.39
2018-02-21T11:17:57.419Z,1019.41
2018-02-21T11:18:57.452Z,1019.39
2018-02-21T11:19:57.513Z,1019.38
2018-02-21T11:20:57.492Z,1019.37
2018-02-21T11:21:57.536Z,1019.37
2018-02-21T11:22:57.536Z,1019.33
2018-02-21T11:23:57.545Z,1019.34
2018-02-21T11:24:57.547Z,1019.32
2018-02-21T11:25:57.681Z,1019.30
2018-02-21T11:26:57.586Z,1019.34
2018-02-21T11:27:57.623Z,1019.33
2018-02-21T11:28:57.653Z,1019.36
2018-02-21T11:29:57.636Z,1019.39
2018-02-21T11:30:57.713Z,1019.35
2018-02-21T11:31:57.699Z,1019.35
2018-02-21T11:32:57.722Z,1019.38
2018-02-21T11:33:57.707Z,1019.37
2018-02-21T11:34:57.742Z,1019.38
2018-02-21T11:35:57.751Z,1019.37
2018-02-21T11:36:57.839Z,1019.37
2018-02-21T11:37:57.817Z,1019.29
2018-02-21T11:38:57.803Z,1019.36
2018-02-21T11:39:57.815Z,1019.39
2018-02-21T11:40:57.865Z,1019.38
2018-02-21T11:41:57.873Z,1019.39
2018-02-21T11:42:57.896Z,1019.32
2018-02-21T11:43:57.899Z,1019.33
2018-02-21T11:44:57.937Z,1019.36
2018-02-21T11:45:57.972Z,1019.33
2018-02-21T11:46:57.956Z,1019.36
2018-02-21T11:47:58.015Z,1019.36
2018-02-21T11:48:57.977Z,1019.33
2018-02-21T11:49:57.997Z,1019.35
2018-02-21T11:50:58.041Z,1019.30
2018-02-21T11:51:58.052Z,1019.30
2018-02-21T11:52:58.712Z,1019.29
2018-02-21T11:53:58.068Z,1019.34
2018-02-21T11:54:58.121Z,1019.35
2018-02-21T11:55:58.114Z,1019.37
2018-02-21T11:56:58.148Z,1019.30
2018-02-21T11:57:58.163Z,1019.28
2018-02-21T11:58:58.220Z,1019.26
2018-02-21T11:59:58.192Z,1019.27
2018-02-21T12:00:58.269Z,1019.26
2018-02-21T12:01:58.223Z,1019.23
2018-02-21T12:02:58.265Z,1019.19
2018-02-21T12:03:58.300Z,1019.24
2018-02-21T12:04:58.404Z,1019.25
2018-02-21T12:05:58.322Z,1019.23